Aransas Pass, TX (78336)

11:20 PM CST on January 30, 2015 (GMT -0600)
Bay Harbor | Change Station
CLOSE
Current Station
Personal Weather Station
Location: Aransas Pass, TX
Elevation: 7 ft
Nearby Weather Stations

Elev 7 ft 27.90 °N, 97.14 °W | Updated 4 seconds ago

Overcast
Overcast
59.0 °F
Feels Like 59.0 °F
N
12.0
Wind Variable Wind from ENE
Gusts 17.1 mph

Today
High -- | Low -- °F
--% Chance of Precip.
Yesterday
High -- | Low -- °F
Precip. -- in
7:16 AM 6:07 PM
Waxing Gibbous, 87% visible
Pressure 30.24 in
Visibility 10.0 miles
Clouds Overcast 2500 ft
Dew Point 55 °F
Humidity 86%
Rainfall 0.00 in
Snow Depth Not available.
UV 0 out of 12
Pollen 8.40 out of 12
Air Quality Not available.
Flu Activity Not available.
METAR KTFP 310455Z AUTO 06010KT 10SM OVC025 15/11 A3024 RMK AO2 T01450114

More Conditions Fewer Conditions

Pressure 30.24 in
Visibility 10.0 miles
Clouds Overcast 2500 ft
Dew Point 55 °F
Humidity 86%
Rainfall 0.00 in
Snow Depth Not available.
UV 0 out of 12
Pollen 8.40 out of 12
Air Quality Not available.
Flu Activity Not available.
METAR KTFP 310455Z AUTO 06010KT 10SM OVC025 15/11 A3024 RMK AO2 T01450114

More Conditions Fewer Conditions

10-Day Weather Forecast

Almanac

Astronomy

Jan. 30, 2015 Rise Set
Actual Time
Civil Twilight
Nautical Twilight
Astronomical Twilight
Moon
Length of Visible Light
Length of Day
Tomorrow will be .
, % of the Moon is Illuminated

Today's Extremes

State Highs State Lows

Community

WunderPhotos

Upload Photos

1,792,005 photos uploaded!

WunderBlogs® & News

Nearby

Air Quality

  Air Quality AQ Index Pollutant
Not available.

Snow Depth

Station Depth Elevation

Earthquake Activity

City Distance Mag. Time & Date
Minimum magnitude displayed is 2.5.

Coastal Water Temperatures

Place Temperature

Nearby Weather Stations